CheckWX is a tool to help pilots better visualize weather data.  It is not intended as a substitute for an official pre-flight weather briefing.

00:21:07 UTC

KBNW METAR
Boone Municipal Airport
Boone, Iowa, USA
Current

3 hours ago

KBNW 082055Z AUTO 09005KT 10SM 07/02 A2971 RMK AO2
Observed
Dec-8 @ 20:55 UTC
Wind
  • 090° at 5 KTS
Visibility
10 SM
Temperature
C / 45°F
Dewpoint
C / 36°F
Humidity
71%
Altimeter
29.71" Hg
Pressure
1006.12 hPa
Previous

4 hours ago

KBNW 082035Z AUTO 07005KT 10SM 07/02 A2971 RMK AO2
Observed
Dec-8 @ 20:35 UTC
Wind
  • 070° at 5 KTS
Visibility
10 SM
Temperature
C / 45°F
Dewpoint
C / 36°F
Humidity
71%
Altimeter
29.71" Hg
Pressure
1006.12 hPa
Previous

4 hours ago

KBNW 082015Z AUTO 05005KT 10SM 07/02 A2972 RMK AO2
Observed
Dec-8 @ 20:15 UTC
Wind
  • 050° at 5 KTS
Visibility
10 SM
Temperature
C / 45°F
Dewpoint
C / 36°F
Humidity
71%
Altimeter
29.72" Hg
Pressure
1006.42 hPa